sensor_id;sensor_type;location;lat;lon;timestamp;P1;durP1;ratioP1;P2;durP2;ratioP2
60582;SDS011;46415;47.536;19.066;2023-03-01T00:02:02;14.32;;;6.53;;
60582;SDS011;46415;47.536;19.066;2023-03-01T00:05:05;10.70;;;6.35;;
60582;SDS011;46415;47.536;19.066;2023-03-01T00:08:09;15.75;;;8.38;;
60582;SDS011;46415;47.536;19.066;2023-03-01T00:14:33;15.18;;;7.65;;
60582;SDS011;46415;47.536;19.066;2023-03-01T00:17:38;9.25;;;6.43;;
60582;SDS011;46415;47.536;19.066;2023-03-01T00:20:48;15.13;;;7.90;;
60582;SDS011;46415;47.536;19.066;2023-03-01T00:23:53;17.42;;;7.60;;
60582;SDS011;46415;47.536;19.066;2023-03-01T00:26:56;14.40;;;7.30;;
60582;SDS011;46415;47.536;19.066;2023-03-01T00:30:00;12.82;;;8.00;;
60582;SDS011;46415;47.536;19.066;2023-03-01T00:33:04;15.02;;;8.23;;
60582;SDS011;46415;47.536;19.066;2023-03-01T00:36:07;10.95;;;6.85;;
60582;SDS011;46415;47.536;19.066;2023-03-01T00:39:12;12.73;;;6.72;;
60582;SDS011;46415;47.536;19.066;2023-03-01T00:42:16;13.18;;;6.93;;
60582;SDS011;46415;47.536;19.066;2023-03-01T00:45:19;10.77;;;6.80;;
60582;SDS011;46415;47.536;19.066;2023-03-01T00:48:22;12.73;;;7.07;;
60582;SDS011;46415;47.536;19.066;2023-03-01T00:51:27;11.12;;;6.95;;
60582;SDS011;46415;47.536;19.066;2023-03-01T00:54:31;19.45;;;7.93;;
60582;SDS011;46415;47.536;19.066;2023-03-01T00:57:34;15.63;;;7.18;;
60582;SDS011;46415;47.536;19.066;2023-03-01T01:00:37;11.98;;;7.30;;
60582;SDS011;46415;47.536;19.066;2023-03-01T01:03:40;10.90;;;6.82;;
60582;SDS011;46415;47.536;19.066;2023-03-01T01:06:43;13.30;;;6.85;;
60582;SDS011;46415;47.536;19.066;2023-03-01T01:09:48;9.80;;;5.57;;
60582;SDS011;46415;47.536;19.066;2023-03-01T01:12:52;14.18;;;6.18;;
60582;SDS011;46415;47.536;19.066;2023-03-01T01:15:54;12.45;;;7.05;;
60582;SDS011;46415;47.536;19.066;2023-03-01T01:19:04;10.15;;;6.93;;
60582;SDS011;46415;47.536;19.066;2023-03-01T01:22:06;13.62;;;7.12;;
60582;SDS011;46415;47.536;19.066;2023-03-01T01:25:09;11.15;;;6.15;;
60582;SDS011;46415;47.536;19.066;2023-03-01T01:28:12;10.05;;;5.40;;
60582;SDS011;46415;47.536;19.066;2023-03-01T01:31:16;11.82;;;6.25;;
60582;SDS011;46415;47.536;19.066;2023-03-01T01:34:20;9.98;;;6.12;;
60582;SDS011;46415;47.536;19.066;2023-03-01T01:37:24;10.95;;;5.78;;
60582;SDS011;46415;47.536;19.066;2023-03-01T01:40:33;10.25;;;5.97;;
60582;SDS011;46415;47.536;19.066;2023-03-01T01:46:47;8.48;;;4.87;;
60582;SDS011;46415;47.536;19.066;2023-03-01T01:49:55;10.25;;;5.80;;
60582;SDS011;46415;47.536;19.066;2023-03-01T01:52:58;8.52;;;5.15;;
60582;SDS011;46415;47.536;19.066;2023-03-01T01:56:01;10.38;;;6.05;;
60582;SDS011;46415;47.536;19.066;2023-03-01T01:59:05;9.27;;;5.65;;
60582;SDS011;46415;47.536;19.066;2023-03-01T02:02:08;7.85;;;5.80;;
60582;SDS011;46415;47.536;19.066;2023-03-01T02:05:18;8.40;;;4.65;;
60582;SDS011;46415;47.536;19.066;2023-03-01T02:08:28;7.75;;;5.20;;
60582;SDS011;46415;47.536;19.066;2023-03-01T02:11:34;7.37;;;5.05;;
60582;SDS011;46415;47.536;19.066;2023-03-01T02:14:39;10.18;;;5.75;;
60582;SDS011;46415;47.536;19.066;2023-03-01T02:17:42;9.40;;;5.40;;
60582;SDS011;46415;47.536;19.066;2023-03-01T02:23:58;7.18;;;5.45;;
60582;SDS011;46415;47.536;19.066;2023-03-01T02:27:09;10.23;;;6.07;;
60582;SDS011;46415;47.536;19.066;2023-03-01T02:30:12;12.77;;;6.12;;
60582;SDS011;46415;47.536;19.066;2023-03-01T02:33:16;8.95;;;5.35;;
60582;SDS011;46415;47.536;19.066;2023-03-01T02:36:29;10.85;;;6.25;;
60582;SDS011;46415;47.536;19.066;2023-03-01T02:39:45;9.88;;;6.03;;
60582;SDS011;46415;47.536;19.066;2023-03-01T02:42:55;9.23;;;5.70;;
60582;SDS011;46415;47.536;19.066;2023-03-01T02:46:06;12.10;;;7.55;;
60582;SDS011;46415;47.536;19.066;2023-03-01T02:49:22;9.82;;;6.18;;
60582;SDS011;46415;47.536;19.066;2023-03-01T02:52:34;11.05;;;5.90;;
60582;SDS011;46415;47.536;19.066;2023-03-01T02:55:44;6.60;;;5.50;;
60582;SDS011;46415;47.536;19.066;2023-03-01T02:58:47;8.43;;;5.87;;
60582;SDS011;46415;47.536;19.066;2023-03-01T03:01:54;9.02;;;5.78;;
60582;SDS011;46415;47.536;19.066;2023-03-01T03:04:57;10.48;;;5.45;;
60582;SDS011;46415;47.536;19.066;2023-03-01T03:08:01;10.38;;;6.15;;
60582;SDS011;46415;47.536;19.066;2023-03-01T03:11:05;10.98;;;5.95;;
60582;SDS011;46415;47.536;19.066;2023-03-01T03:14:10;9.43;;;4.97;;
60582;SDS011;46415;47.536;19.066;2023-03-01T03:17:15;9.73;;;5.80;;
60582;SDS011;46415;47.536;19.066;2023-03-01T03:20:20;13.55;;;6.62;;
60582;SDS011;46415;47.536;19.066;2023-03-01T03:23:25;11.25;;;5.57;;
60582;SDS011;46415;47.536;19.066;2023-03-01T03:26:28;8.52;;;5.43;;
60582;SDS011;46415;47.536;19.066;2023-03-01T03:29:31;14.35;;;6.05;;
60582;SDS011;46415;47.536;19.066;2023-03-01T03:32:35;10.20;;;5.43;;
60582;SDS011;46415;47.536;19.066;2023-03-01T03:35:40;9.98;;;5.03;;
60582;SDS011;46415;47.536;19.066;2023-03-01T03:38:44;10.85;;;6.03;;
60582;SDS011;46415;47.536;19.066;2023-03-01T03:41:51;9.65;;;5.43;;
60582;SDS011;46415;47.536;19.066;2023-03-01T03:44:54;10.88;;;6.12;;
60582;SDS011;46415;47.536;19.066;2023-03-01T03:47:56;7.72;;;5.12;;
60582;SDS011;46415;47.536;19.066;2023-03-01T03:51:00;11.68;;;5.97;;
60582;SDS011;46415;47.536;19.066;2023-03-01T03:54:02;8.20;;;5.05;;
60582;SDS011;46415;47.536;19.066;2023-03-01T03:57:06;12.15;;;6.93;;
60582;SDS011;46415;47.536;19.066;2023-03-01T04:00:10;8.13;;;5.53;;
60582;SDS011;46415;47.536;19.066;2023-03-01T04:03:18;8.40;;;6.18;;
60582;SDS011;46415;47.536;19.066;2023-03-01T04:06:22;10.98;;;5.35;;
60582;SDS011;46415;47.536;19.066;2023-03-01T04:09:25;8.70;;;5.72;;
60582;SDS011;46415;47.536;19.066;2023-03-01T04:12:27;11.68;;;5.55;;
60582;SDS011;46415;47.536;19.066;2023-03-01T04:15:30;8.38;;;5.20;;
60582;SDS011;46415;47.536;19.066;2023-03-01T04:18:34;9.02;;;5.35;;
60582;SDS011;46415;47.536;19.066;2023-03-01T04:21:37;9.80;;;5.93;;
60582;SDS011;46415;47.536;19.066;2023-03-01T04:24:40;8.23;;;4.87;;
60582;SDS011;46415;47.536;19.066;2023-03-01T04:27:43;8.52;;;5.55;;
60582;SDS011;46415;47.536;19.066;2023-03-01T04:30:46;7.40;;;4.78;;
60582;SDS011;46415;47.536;19.066;2023-03-01T04:33:52;9.07;;;4.93;;
60582;SDS011;46415;47.536;19.066;2023-03-01T04:36:56;9.45;;;5.60;;
60582;SDS011;46415;47.536;19.066;2023-03-01T04:39:59;10.43;;;5.12;;
60582;SDS011;46415;47.536;19.066;2023-03-01T04:43:03;15.45;;;6.12;;
60582;SDS011;46415;47.536;19.066;2023-03-01T04:46:07;9.23;;;5.93;;
60582;SDS011;46415;47.536;19.066;2023-03-01T04:49:16;7.28;;;5.47;;
60582;SDS011;46415;47.536;19.066;2023-03-01T04:52:19;11.45;;;5.75;;
60582;SDS011;46415;47.536;19.066;2023-03-01T04:55:21;8.35;;;5.10;;
60582;SDS011;46415;47.536;19.066;2023-03-01T04:58:27;9.57;;;5.15;;
60582;SDS011;46415;47.536;19.066;2023-03-01T05:01:30;8.45;;;5.43;;
60582;SDS011;46415;47.536;19.066;2023-03-01T05:04:33;8.25;;;5.40;;
60582;SDS011;46415;47.536;19.066;2023-03-01T05:07:35;7.78;;;4.97;;
60582;SDS011;46415;47.536;19.066;2023-03-01T05:10:45;8.07;;;4.55;;
60582;SDS011;46415;47.536;19.066;2023-03-01T05:13:49;9.95;;;4.78;;
60582;SDS011;46415;47.536;19.066;2023-03-01T05:20:06;9.95;;;4.95;;
60582;SDS011;46415;47.536;19.066;2023-03-01T05:23:15;8.70;;;5.22;;
60582;SDS011;46415;47.536;19.066;2023-03-01T05:26:20;6.82;;;4.62;;
60582;SDS011;46415;47.536;19.066;2023-03-01T05:29:30;8.95;;;5.37;;
60582;SDS011;46415;47.536;19.066;2023-03-01T05:32:36;10.95;;;5.65;;
60582;SDS011;46415;47.536;19.066;2023-03-01T05:35:40;8.63;;;4.70;;
60582;SDS011;46415;47.536;19.066;2023-03-01T05:38:44;10.65;;;5.53;;
60582;SDS011;46415;47.536;19.066;2023-03-01T05:41:47;8.27;;;5.35;;
60582;SDS011;46415;47.536;19.066;2023-03-01T05:44:50;9.27;;;5.45;;
60582;SDS011;46415;47.536;19.066;2023-03-01T05:47:53;8.30;;;5.97;;
60582;SDS011;46415;47.536;19.066;2023-03-01T05:50:59;9.73;;;5.78;;
60582;SDS011;46415;47.536;19.066;2023-03-01T05:54:03;9.55;;;6.00;;
60582;SDS011;46415;47.536;19.066;2023-03-01T05:57:07;10.70;;;5.35;;
60582;SDS011;46415;47.536;19.066;2023-03-01T06:00:11;7.53;;;5.00;;
60582;SDS011;46415;47.536;19.066;2023-03-01T06:03:17;11.52;;;5.80;;
60582;SDS011;46415;47.536;19.066;2023-03-01T06:06:20;14.87;;;5.25;;
60582;SDS011;46415;47.536;19.066;2023-03-01T06:09:23;8.23;;;5.60;;
60582;SDS011;46415;47.536;19.066;2023-03-01T06:12:34;14.65;;;6.37;;
60582;SDS011;46415;47.536;19.066;2023-03-01T06:15:38;12.43;;;5.32;;
60582;SDS011;46415;47.536;19.066;2023-03-01T06:18:41;9.95;;;5.20;;
60582;SDS011;46415;47.536;19.066;2023-03-01T06:21:44;11.00;;;6.18;;
60582;SDS011;46415;47.536;19.066;2023-03-01T06:24:46;14.07;;;5.97;;
60582;SDS011;46415;47.536;19.066;2023-03-01T06:27:49;9.45;;;5.37;;
60582;SDS011;46415;47.536;19.066;2023-03-01T06:30:52;11.48;;;6.43;;
60582;SDS011;46415;47.536;19.066;2023-03-01T06:33:55;8.57;;;5.22;;
60582;SDS011;46415;47.536;19.066;2023-03-01T06:36:58;9.52;;;6.55;;
60582;SDS011;46415;47.536;19.066;2023-03-01T06:40:02;11.12;;;6.00;;
60582;SDS011;46415;47.536;19.066;2023-03-01T06:43:17;8.85;;;5.30;;
60582;SDS011;46415;47.536;19.066;2023-03-01T06:46:20;8.73;;;5.22;;
60582;SDS011;46415;47.536;19.066;2023-03-01T06:49:23;10.27;;;5.75;;
60582;SDS011;46415;47.536;19.066;2023-03-01T06:52:26;12.45;;;5.85;;
60582;SDS011;46415;47.536;19.066;2023-03-01T06:55:29;11.30;;;6.30;;
60582;SDS011;46415;47.536;19.066;2023-03-01T06:58:32;8.70;;;5.62;;
60582;SDS011;46415;47.536;19.066;2023-03-01T07:01:35;14.10;;;5.60;;
60582;SDS011;46415;47.536;19.066;2023-03-01T07:04:38;9.90;;;5.78;;
60582;SDS011;46415;47.536;19.066;2023-03-01T07:07:41;12.27;;;7.03;;
60582;SDS011;46415;47.536;19.066;2023-03-01T07:10:45;13.05;;;6.47;;
60582;SDS011;46415;47.536;19.066;2023-03-01T07:13:48;10.75;;;6.45;;
60582;SDS011;46415;47.536;19.066;2023-03-01T07:16:51;17.62;;;6.18;;
60582;SDS011;46415;47.536;19.066;2023-03-01T07:19:54;9.43;;;5.87;;
60582;SDS011;46415;47.536;19.066;2023-03-01T07:22:59;10.75;;;6.62;;
60582;SDS011;46415;47.536;19.066;2023-03-01T07:26:01;9.20;;;5.97;;
60582;SDS011;46415;47.536;19.066;2023-03-01T07:29:05;12.20;;;6.87;;
60582;SDS011;46415;47.536;19.066;2023-03-01T07:32:09;13.25;;;6.50;;
60582;SDS011;46415;47.536;19.066;2023-03-01T07:35:13;9.10;;;6.12;;
60582;SDS011;46415;47.536;19.066;2023-03-01T07:38:17;10.35;;;6.87;;
60582;SDS011;46415;47.536;19.066;2023-03-01T07:41:21;10.90;;;5.85;;
60582;SDS011;46415;47.536;19.066;2023-03-01T07:44:24;11.27;;;6.75;;
60582;SDS011;46415;47.536;19.066;2023-03-01T07:47:27;10.50;;;6.12;;
60582;SDS011;46415;47.536;19.066;2023-03-01T07:50:32;10.43;;;5.82;;
60582;SDS011;46415;47.536;19.066;2023-03-01T07:53:35;14.35;;;6.87;;
60582;SDS011;46415;47.536;19.066;2023-03-01T07:56:37;12.57;;;5.97;;
60582;SDS011;46415;47.536;19.066;2023-03-01T07:59:40;11.93;;;6.85;;
60582;SDS011;46415;47.536;19.066;2023-03-01T08:02:43;12.32;;;6.68;;
60582;SDS011;46415;47.536;19.066;2023-03-01T08:05:47;9.68;;;5.47;;
60582;SDS011;46415;47.536;19.066;2023-03-01T08:08:50;10.18;;;5.97;;
60582;SDS011;46415;47.536;19.066;2023-03-01T08:11:53;8.00;;;5.10;;
60582;SDS011;46415;47.536;19.066;2023-03-01T08:14:56;8.32;;;5.25;;
60582;SDS011;46415;47.536;19.066;2023-03-01T08:17:59;9.55;;;5.62;;
60582;SDS011;46415;47.536;19.066;2023-03-01T08:21:04;9.77;;;5.62;;
60582;SDS011;46415;47.536;19.066;2023-03-01T08:24:12;7.20;;;5.07;;
60582;SDS011;46415;47.536;19.066;2023-03-01T08:27:15;9.32;;;5.93;;
60582;SDS011;46415;47.536;19.066;2023-03-01T08:30:21;8.93;;;5.25;;
60582;SDS011;46415;47.536;19.066;2023-03-01T08:33:26;6.87;;;4.62;;
60582;SDS011;46415;47.536;19.066;2023-03-01T08:36:30;7.07;;;5.05;;
60582;SDS011;46415;47.536;19.066;2023-03-01T08:39:34;11.48;;;5.55;;
60582;SDS011;46415;47.536;19.066;2023-03-01T08:42:37;8.57;;;5.37;;
60582;SDS011;46415;47.536;19.066;2023-03-01T08:45:40;7.03;;;5.30;;
60582;SDS011;46415;47.536;19.066;2023-03-01T08:48:43;9.25;;;5.55;;
60582;SDS011;46415;47.536;19.066;2023-03-01T08:51:46;9.98;;;6.87;;
60582;SDS011;46415;47.536;19.066;2023-03-01T08:54:50;8.38;;;5.25;;
60582;SDS011;46415;47.536;19.066;2023-03-01T08:57:53;9.88;;;6.37;;
60582;SDS011;46415;47.536;19.066;2023-03-01T09:00:57;9.90;;;6.68;;
60582;SDS011;46415;47.536;19.066;2023-03-01T09:04:00;11.45;;;7.10;;
60582;SDS011;46415;47.536;19.066;2023-03-01T09:07:03;13.32;;;7.12;;
60582;SDS011;46415;47.536;19.066;2023-03-01T09:10:07;8.95;;;6.37;;
60582;SDS011;46415;47.536;19.066;2023-03-01T09:13:12;9.60;;;6.12;;
60582;SDS011;46415;47.536;19.066;2023-03-01T09:16:16;11.05;;;8.23;;
60582;SDS011;46415;47.536;19.066;2023-03-01T09:19:21;9.85;;;6.25;;
60582;SDS011;46415;47.536;19.066;2023-03-01T09:22:27;12.63;;;8.73;;
60582;SDS011;46415;47.536;19.066;2023-03-01T09:25:30;12.05;;;7.50;;
60582;SDS011;46415;47.536;19.066;2023-03-01T09:28:32;10.60;;;6.40;;
60582;SDS011;46415;47.536;19.066;2023-03-01T09:31:36;12.18;;;8.02;;
60582;SDS011;46415;47.536;19.066;2023-03-01T09:34:38;13.30;;;6.95;;
60582;SDS011;46415;47.536;19.066;2023-03-01T09:38:00;9.63;;;7.87;;
60582;SDS011;46415;47.536;19.066;2023-03-01T09:41:08;12.43;;;7.25;;
60582;SDS011;46415;47.536;19.066;2023-03-01T09:44:51;11.45;;;8.43;;
60582;SDS011;46415;47.536;19.066;2023-03-01T09:51:00;10.73;;;6.93;;
60582;SDS011;46415;47.536;19.066;2023-03-01T09:54:09;11.85;;;7.30;;
60582;SDS011;46415;47.536;19.066;2023-03-01T09:57:20;12.88;;;7.20;;
60582;SDS011;46415;47.536;19.066;2023-03-01T10:00:36;11.43;;;7.57;;
60582;SDS011;46415;47.536;19.066;2023-03-01T10:03:44;11.85;;;7.05;;
60582;SDS011;46415;47.536;19.066;2023-03-01T10:10:33;12.05;;;8.10;;
60582;SDS011;46415;47.536;19.066;2023-03-01T10:13:52;14.55;;;7.07;;
60582;SDS011;46415;47.536;19.066;2023-03-01T10:20:53;12.30;;;8.50;;
60582;SDS011;46415;47.536;19.066;2023-03-01T10:24:04;10.68;;;8.02;;
60582;SDS011;46415;47.536;19.066;2023-03-01T10:33:32;16.02;;;10.10;;
60582;SDS011;46415;47.536;19.066;2023-03-01T10:36:40;11.80;;;8.40;;
60582;SDS011;46415;47.536;19.066;2023-03-01T10:43:03;10.80;;;7.00;;
60582;SDS011;46415;47.536;19.066;2023-03-01T10:46:24;12.45;;;8.93;;
60582;SDS011;46415;47.536;19.066;2023-03-01T10:49:35;10.13;;;7.15;;
60582;SDS011;46415;47.536;19.066;2023-03-01T10:52:40;13.07;;;8.30;;
60582;SDS011;46415;47.536;19.066;2023-03-01T10:55:44;12.25;;;8.65;;
60582;SDS011;46415;47.536;19.066;2023-03-01T10:58:59;12.43;;;7.97;;
60582;SDS011;46415;47.536;19.066;2023-03-01T11:02:50;11.27;;;8.77;;
60582;SDS011;46415;47.536;19.066;2023-03-01T11:05:50;10.15;;;7.10;;
60582;SDS011;46415;47.536;19.066;2023-03-01T11:08:56;11.82;;;8.25;;
60582;SDS011;46415;47.536;19.066;2023-03-01T11:12:00;11.50;;;7.75;;
60582;SDS011;46415;47.536;19.066;2023-03-01T11:15:03;12.98;;;9.02;;
60582;SDS011;46415;47.536;19.066;2023-03-01T11:18:17;11.07;;;8.65;;
60582;SDS011;46415;47.536;19.066;2023-03-01T11:21:29;12.32;;;7.40;;
60582;SDS011;46415;47.536;19.066;2023-03-01T11:24:46;13.50;;;9.77;;
60582;SDS011;46415;47.536;19.066;2023-03-01T11:28:06;12.88;;;8.73;;
60582;SDS011;46415;47.536;19.066;2023-03-01T11:31:15;13.62;;;9.13;;
60582;SDS011;46415;47.536;19.066;2023-03-01T11:34:20;12.37;;;8.95;;
60582;SDS011;46415;47.536;19.066;2023-03-01T11:38:31;12.43;;;8.40;;
60582;SDS011;46415;47.536;19.066;2023-03-01T11:41:27;11.32;;;8.70;;
60582;SDS011;46415;47.536;19.066;2023-03-01T11:44:34;11.15;;;8.20;;
60582;SDS011;46415;47.536;19.066;2023-03-01T11:48:00;11.20;;;8.50;;
60582;SDS011;46415;47.536;19.066;2023-03-01T11:51:37;12.25;;;8.27;;
60582;SDS011;46415;47.536;19.066;2023-03-01T11:54:55;11.57;;;8.60;;
60582;SDS011;46415;47.536;19.066;2023-03-01T12:08:54;11.65;;;8.27;;
60582;SDS011;46415;47.536;19.066;2023-03-01T12:15:53;10.07;;;7.62;;
60582;SDS011;46415;47.536;19.066;2023-03-01T12:25:39;9.40;;;7.40;;
60582;SDS011;46415;47.536;19.066;2023-03-01T12:36:20;9.13;;;7.00;;
60582;SDS011;46415;47.536;19.066;2023-03-01T12:49:56;8.82;;;5.90;;
60582;SDS011;46415;47.536;19.066;2023-03-01T12:53:02;7.57;;;6.25;;
60582;SDS011;46415;47.536;19.066;2023-03-01T12:56:05;7.70;;;6.18;;
60582;SDS011;46415;47.536;19.066;2023-03-01T12:59:20;7.95;;;5.53;;
60582;SDS011;46415;47.536;19.066;2023-03-01T13:02:26;6.70;;;5.37;;
60582;SDS011;46415;47.536;19.066;2023-03-01T13:12:52;7.03;;;5.50;;
60582;SDS011;46415;47.536;19.066;2023-03-01T13:15:56;6.50;;;5.30;;
60582;SDS011;46415;47.536;19.066;2023-03-01T13:19:11;5.97;;;5.10;;
60582;SDS011;46415;47.536;19.066;2023-03-01T13:22:35;6.05;;;5.40;;
60582;SDS011;46415;47.536;19.066;2023-03-01T13:29:01;5.60;;;4.90;;
60582;SDS011;46415;47.536;19.066;2023-03-01T13:32:04;5.37;;;4.18;;
60582;SDS011;46415;47.536;19.066;2023-03-01T13:41:48;5.50;;;4.32;;
60582;SDS011;46415;47.536;19.066;2023-03-01T13:44:53;4.85;;;4.05;;
60582;SDS011;46415;47.536;19.066;2023-03-01T13:48:02;4.28;;;3.87;;
60582;SDS011;46415;47.536;19.066;2023-03-01T13:51:11;7.15;;;3.90;;
60582;SDS011;46415;47.536;19.066;2023-03-01T13:54:14;4.93;;;4.00;;
60582;SDS011;46415;47.536;19.066;2023-03-01T13:57:25;4.32;;;3.70;;
60582;SDS011;46415;47.536;19.066;2023-03-01T14:00:37;4.65;;;3.80;;
60582;SDS011;46415;47.536;19.066;2023-03-01T14:06:44;4.50;;;3.90;;
60582;SDS011;46415;47.536;19.066;2023-03-01T14:09:48;4.53;;;3.78;;
60582;SDS011;46415;47.536;19.066;2023-03-01T14:19:36;5.87;;;4.07;;
60582;SDS011;46415;47.536;19.066;2023-03-01T14:22:40;4.72;;;4.03;;
60582;SDS011;46415;47.536;19.066;2023-03-01T14:25:47;4.05;;;3.65;;
60582;SDS011;46415;47.536;19.066;2023-03-01T14:28:52;6.35;;;4.05;;
60582;SDS011;46415;47.536;19.066;2023-03-01T14:32:01;3.90;;;3.55;;
60582;SDS011;46415;47.536;19.066;2023-03-01T14:35:22;4.50;;;4.00;;
60582;SDS011;46415;47.536;19.066;2023-03-01T14:41:33;4.60;;;3.40;;
60582;SDS011;46415;47.536;19.066;2023-03-01T14:44:38;4.60;;;3.75;;
60582;SDS011;46415;47.536;19.066;2023-03-01T14:47:43;4.40;;;3.50;;
60582;SDS011;46415;47.536;19.066;2023-03-01T14:50:47;6.40;;;3.62;;
60582;SDS011;46415;47.536;19.066;2023-03-01T14:53:53;3.37;;;3.08;;
60582;SDS011;46415;47.536;19.066;2023-03-01T14:56:59;5.43;;;3.35;;
60582;SDS011;46415;47.536;19.066;2023-03-01T15:00:03;5.10;;;3.83;;
60582;SDS011;46415;47.536;19.066;2023-03-01T15:03:16;4.00;;;3.60;;
60582;SDS011;46415;47.536;19.066;2023-03-01T15:06:27;5.03;;;3.97;;
60582;SDS011;46415;47.536;19.066;2023-03-01T15:09:32;4.45;;;3.55;;
60582;SDS011;46415;47.536;19.066;2023-03-01T15:12:40;5.35;;;3.75;;
60582;SDS011;46415;47.536;19.066;2023-03-01T15:15:43;5.68;;;4.00;;
60582;SDS011;46415;47.536;19.066;2023-03-01T15:18:52;5.37;;;3.85;;
60582;SDS011;46415;47.536;19.066;2023-03-01T15:22:00;4.68;;;3.80;;
60582;SDS011;46415;47.536;19.066;2023-03-01T15:25:15;4.20;;;3.80;;
60582;SDS011;46415;47.536;19.066;2023-03-01T15:28:20;4.82;;;3.83;;
60582;SDS011;46415;47.536;19.066;2023-03-01T15:31:25;4.18;;;3.78;;
60582;SDS011;46415;47.536;19.066;2023-03-01T15:34:30;4.43;;;3.80;;
60582;SDS011;46415;47.536;19.066;2023-03-01T15:37:44;4.43;;;3.95;;
60582;SDS011;46415;47.536;19.066;2023-03-01T15:40:51;5.55;;;3.87;;
60582;SDS011;46415;47.536;19.066;2023-03-01T15:43:55;3.90;;;3.50;;
60582;SDS011;46415;47.536;19.066;2023-03-01T15:46:58;4.00;;;3.60;;
60582;SDS011;46415;47.536;19.066;2023-03-01T15:50:02;4.10;;;3.70;;
60582;SDS011;46415;47.536;19.066;2023-03-01T15:53:06;4.18;;;3.67;;
60582;SDS011;46415;47.536;19.066;2023-03-01T15:56:13;6.00;;;4.20;;
60582;SDS011;46415;47.536;19.066;2023-03-01T15:59:16;6.05;;;4.43;;
60582;SDS011;46415;47.536;19.066;2023-03-01T16:02:20;6.75;;;3.95;;
60582;SDS011;46415;47.536;19.066;2023-03-01T16:05:26;4.78;;;4.12;;
60582;SDS011;46415;47.536;19.066;2023-03-01T16:08:31;4.37;;;3.95;;
60582;SDS011;46415;47.536;19.066;2023-03-01T16:11:34;4.93;;;4.20;;
60582;SDS011;46415;47.536;19.066;2023-03-01T16:14:38;5.57;;;4.40;;
60582;SDS011;46415;47.536;19.066;2023-03-01T16:17:41;6.22;;;4.50;;
60582;SDS011;46415;47.536;19.066;2023-03-01T16:20:46;7.15;;;4.10;;
60582;SDS011;46415;47.536;19.066;2023-03-01T16:23:50;5.45;;;4.00;;
60582;SDS011;46415;47.536;19.066;2023-03-01T16:26:54;5.03;;;3.60;;
60582;SDS011;46415;47.536;19.066;2023-03-01T16:29:57;4.37;;;3.87;;
60582;SDS011;46415;47.536;19.066;2023-03-01T16:33:00;6.20;;;3.83;;
60582;SDS011;46415;47.536;19.066;2023-03-01T16:36:06;4.75;;;3.45;;
60582;SDS011;46415;47.536;19.066;2023-03-01T16:39:10;5.85;;;3.47;;
60582;SDS011;46415;47.536;19.066;2023-03-01T16:42:13;4.68;;;3.67;;
60582;SDS011;46415;47.536;19.066;2023-03-01T16:45:17;4.85;;;3.65;;
60582;SDS011;46415;47.536;19.066;2023-03-01T16:48:26;3.47;;;2.78;;
60582;SDS011;46415;47.536;19.066;2023-03-01T16:51:29;5.68;;;3.33;;
60582;SDS011;46415;47.536;19.066;2023-03-01T16:54:33;4.85;;;3.15;;
60582;SDS011;46415;47.536;19.066;2023-03-01T16:57:37;4.78;;;3.03;;
60582;SDS011;46415;47.536;19.066;2023-03-01T17:00:42;7.87;;;2.53;;
60582;SDS011;46415;47.536;19.066;2023-03-01T17:03:45;4.25;;;3.22;;
60582;SDS011;46415;47.536;19.066;2023-03-01T17:06:51;4.30;;;3.10;;
60582;SDS011;46415;47.536;19.066;2023-03-01T17:09:53;6.43;;;3.83;;
60582;SDS011;46415;47.536;19.066;2023-03-01T17:12:56;6.57;;;4.03;;
60582;SDS011;46415;47.536;19.066;2023-03-01T17:15:59;10.10;;;3.95;;
60582;SDS011;46415;47.536;19.066;2023-03-01T17:19:02;6.62;;;3.45;;
60582;SDS011;46415;47.536;19.066;2023-03-01T17:22:04;4.03;;;3.08;;
60582;SDS011;46415;47.536;19.066;2023-03-01T17:25:08;7.37;;;3.75;;
60582;SDS011;46415;47.536;19.066;2023-03-01T17:28:12;7.53;;;4.12;;
60582;SDS011;46415;47.536;19.066;2023-03-01T17:31:23;4.07;;;3.08;;
60582;SDS011;46415;47.536;19.066;2023-03-01T17:34:26;9.15;;;3.33;;
60582;SDS011;46415;47.536;19.066;2023-03-01T17:37:29;7.03;;;3.80;;
60582;SDS011;46415;47.536;19.066;2023-03-01T17:40:32;7.90;;;3.28;;
60582;SDS011;46415;47.536;19.066;2023-03-01T17:43:37;6.68;;;4.37;;
60582;SDS011;46415;47.536;19.066;2023-03-01T17:46:40;7.85;;;3.87;;
60582;SDS011;46415;47.536;19.066;2023-03-01T17:49:43;7.68;;;4.78;;
60582;SDS011;46415;47.536;19.066;2023-03-01T17:52:46;8.32;;;3.83;;
60582;SDS011;46415;47.536;19.066;2023-03-01T17:55:49;9.73;;;4.07;;
60582;SDS011;46415;47.536;19.066;2023-03-01T17:59:01;7.32;;;4.57;;
60582;SDS011;46415;47.536;19.066;2023-03-01T18:02:06;7.62;;;4.12;;
60582;SDS011;46415;47.536;19.066;2023-03-01T18:05:09;5.43;;;4.28;;
60582;SDS011;46415;47.536;19.066;2023-03-01T18:08:13;8.55;;;4.62;;
60582;SDS011;46415;47.536;19.066;2023-03-01T18:11:16;7.80;;;4.00;;
60582;SDS011;46415;47.536;19.066;2023-03-01T18:14:20;7.80;;;4.18;;
60582;SDS011;46415;47.536;19.066;2023-03-01T18:17:23;4.50;;;3.83;;
60582;SDS011;46415;47.536;19.066;2023-03-01T18:20:27;6.53;;;3.70;;
60582;SDS011;46415;47.536;19.066;2023-03-01T18:23:32;5.70;;;3.75;;
60582;SDS011;46415;47.536;19.066;2023-03-01T18:26:37;4.70;;;4.03;;
60582;SDS011;46415;47.536;19.066;2023-03-01T18:29:41;5.03;;;4.12;;
60582;SDS011;46415;47.536;19.066;2023-03-01T18:32:44;7.12;;;4.53;;
60582;SDS011;46415;47.536;19.066;2023-03-01T18:35:47;7.50;;;4.78;;
60582;SDS011;46415;47.536;19.066;2023-03-01T18:38:51;7.68;;;4.70;;
60582;SDS011;46415;47.536;19.066;2023-03-01T18:41:58;7.75;;;4.40;;
60582;SDS011;46415;47.536;19.066;2023-03-01T18:45:00;8.05;;;4.70;;
60582;SDS011;46415;47.536;19.066;2023-03-01T18:48:04;6.15;;;4.68;;
60582;SDS011;46415;47.536;19.066;2023-03-01T18:51:10;8.05;;;4.68;;
60582;SDS011;46415;47.536;19.066;2023-03-01T18:54:18;7.15;;;4.05;;
60582;SDS011;46415;47.536;19.066;2023-03-01T18:57:21;6.87;;;5.07;;
60582;SDS011;46415;47.536;19.066;2023-03-01T19:00:25;11.73;;;6.00;;
60582;SDS011;46415;47.536;19.066;2023-03-01T19:03:28;9.48;;;5.50;;
60582;SDS011;46415;47.536;19.066;2023-03-01T19:06:32;11.25;;;5.78;;
60582;SDS011;46415;47.536;19.066;2023-03-01T19:09:37;8.27;;;5.28;;
60582;SDS011;46415;47.536;19.066;2023-03-01T19:12:41;10.85;;;5.93;;
60582;SDS011;46415;47.536;19.066;2023-03-01T19:15:43;13.62;;;6.70;;
60582;SDS011;46415;47.536;19.066;2023-03-01T19:18:46;13.73;;;5.65;;
60582;SDS011;46415;47.536;19.066;2023-03-01T19:21:52;14.52;;;7.32;;
60582;SDS011;46415;47.536;19.066;2023-03-01T19:25:07;12.68;;;7.18;;
60582;SDS011;46415;47.536;19.066;2023-03-01T19:28:10;11.32;;;6.35;;
60582;SDS011;46415;47.536;19.066;2023-03-01T19:31:14;10.93;;;6.20;;
60582;SDS011;46415;47.536;19.066;2023-03-01T19:34:19;15.77;;;7.18;;
60582;SDS011;46415;47.536;19.066;2023-03-01T19:37:24;12.40;;;7.25;;
60582;SDS011;46415;47.536;19.066;2023-03-01T19:40:27;14.38;;;7.35;;
60582;SDS011;46415;47.536;19.066;2023-03-01T19:43:29;12.27;;;7.18;;
60582;SDS011;46415;47.536;19.066;2023-03-01T19:46:32;11.40;;;6.43;;
60582;SDS011;46415;47.536;19.066;2023-03-01T19:49:37;11.98;;;6.90;;
60582;SDS011;46415;47.536;19.066;2023-03-01T19:52:39;12.48;;;9.18;;
60582;SDS011;46415;47.536;19.066;2023-03-01T19:55:42;12.25;;;7.62;;
60582;SDS011;46415;47.536;19.066;2023-03-01T19:58:45;15.50;;;7.55;;